sensor_id;sensor_type;location;lat;lon;timestamp;P1;durP1;ratioP1;P2;durP2;ratioP2
19808;SDS011;48538;32.784;-96.802;2024-03-08T00:00:45;59.45;;;31.35;;
19808;SDS011;48538;32.784;-96.802;2024-03-08T00:03:12;12.90;;;7.35;;
19808;SDS011;48538;32.784;-96.802;2024-03-08T00:05:38;14.70;;;8.90;;
19808;SDS011;48538;32.784;-96.802;2024-03-08T00:08:05;13.63;;;8.73;;
19808;SDS011;48538;32.784;-96.802;2024-03-08T00:10:35;14.98;;;10.13;;
19808;SDS011;48538;32.784;-96.802;2024-03-08T00:13:01;10.13;;;6.63;;
19808;SDS011;48538;32.784;-96.802;2024-03-08T00:15:29;8.00;;;4.85;;
19808;SDS011;48538;32.784;-96.802;2024-03-08T00:17:57;8.05;;;5.90;;
19808;SDS011;48538;32.784;-96.802;2024-03-08T00:20:23;9.45;;;5.72;;
19808;SDS011;48538;32.784;-96.802;2024-03-08T00:22:50;7.75;;;5.07;;
19808;SDS011;48538;32.784;-96.802;2024-03-08T00:25:16;10.65;;;6.07;;
19808;SDS011;48538;32.784;-96.802;2024-03-08T00:27:43;14.70;;;8.70;;
19808;SDS011;48538;32.784;-96.802;2024-03-08T00:30:10;16.20;;;7.40;;
19808;SDS011;48538;32.784;-96.802;2024-03-08T00:32:38;21.40;;;13.45;;
19808;SDS011;48538;32.784;-96.802;2024-03-08T00:35:04;19.80;;;10.20;;
19808;SDS011;48538;32.784;-96.802;2024-03-08T00:37:33;15.50;;;6.88;;
19808;SDS011;48538;32.784;-96.802;2024-03-08T00:40:00;9.45;;;5.28;;
19808;SDS011;48538;32.784;-96.802;2024-03-08T00:42:26;15.43;;;8.55;;
19808;SDS011;48538;32.784;-96.802;2024-03-08T00:44:52;8.90;;;5.75;;
19808;SDS011;48538;32.784;-96.802;2024-03-08T00:47:19;11.90;;;7.15;;
19808;SDS011;48538;32.784;-96.802;2024-03-08T00:49:46;12.95;;;7.35;;
19808;SDS011;48538;32.784;-96.802;2024-03-08T00:52:12;11.65;;;6.50;;
19808;SDS011;48538;32.784;-96.802;2024-03-08T00:54:38;15.15;;;8.68;;
19808;SDS011;48538;32.784;-96.802;2024-03-08T00:57:05;15.20;;;8.15;;
19808;SDS011;48538;32.784;-96.802;2024-03-08T00:59:32;15.68;;;8.50;;
19808;SDS011;48538;32.784;-96.802;2024-03-08T01:01:58;13.15;;;7.75;;
19808;SDS011;48538;32.784;-96.802;2024-03-08T01:04:25;18.13;;;9.63;;
19808;SDS011;48538;32.784;-96.802;2024-03-08T01:06:54;33.40;;;20.10;;
19808;SDS011;48538;32.784;-96.802;2024-03-08T01:09:22;9.30;;;6.40;;
19808;SDS011;48538;32.784;-96.802;2024-03-08T01:11:48;28.55;;;15.30;;
19808;SDS011;48538;32.784;-96.802;2024-03-08T01:14:15;12.52;;;7.45;;
19808;SDS011;48538;32.784;-96.802;2024-03-08T01:16:42;18.52;;;10.35;;
19808;SDS011;48538;32.784;-96.802;2024-03-08T01:19:08;31.13;;;16.50;;
19808;SDS011;48538;32.784;-96.802;2024-03-08T01:21:34;18.20;;;11.25;;
19808;SDS011;48538;32.784;-96.802;2024-03-08T01:24:01;27.95;;;15.52;;
19808;SDS011;48538;32.784;-96.802;2024-03-08T01:26:28;35.08;;;20.38;;
19808;SDS011;48538;32.784;-96.802;2024-03-08T01:28:54;68.13;;;38.33;;
19808;SDS011;48538;32.784;-96.802;2024-03-08T01:31:20;50.40;;;25.90;;
19808;SDS011;48538;32.784;-96.802;2024-03-08T01:33:47;62.47;;;30.67;;
19808;SDS011;48538;32.784;-96.802;2024-03-08T01:36:15;28.40;;;16.08;;
19808;SDS011;48538;32.784;-96.802;2024-03-08T01:38:42;19.70;;;10.82;;
19808;SDS011;48538;32.784;-96.802;2024-03-08T01:41:08;19.45;;;11.45;;
19808;SDS011;48538;32.784;-96.802;2024-03-08T01:43:34;19.30;;;10.65;;
19808;SDS011;48538;32.784;-96.802;2024-03-08T01:46:01;23.20;;;11.93;;
19808;SDS011;48538;32.784;-96.802;2024-03-08T01:48:28;11.63;;;6.88;;
19808;SDS011;48538;32.784;-96.802;2024-03-08T01:50:56;11.45;;;7.03;;
19808;SDS011;48538;32.784;-96.802;2024-03-08T01:53:28;11.90;;;6.90;;
19808;SDS011;48538;32.784;-96.802;2024-03-08T01:55:56;13.50;;;7.25;;
19808;SDS011;48538;32.784;-96.802;2024-03-08T01:58:24;9.43;;;5.88;;
19808;SDS011;48538;32.784;-96.802;2024-03-08T02:00:55;12.70;;;6.40;;
19808;SDS011;48538;32.784;-96.802;2024-03-08T02:03:25;10.63;;;6.88;;
19808;SDS011;48538;32.784;-96.802;2024-03-08T02:05:53;13.48;;;7.43;;
19808;SDS011;48538;32.784;-96.802;2024-03-08T02:08:20;12.55;;;7.20;;
19808;SDS011;48538;32.784;-96.802;2024-03-08T02:10:48;11.38;;;6.57;;
19808;SDS011;48538;32.784;-96.802;2024-03-08T02:13:14;11.27;;;6.50;;
19808;SDS011;48538;32.784;-96.802;2024-03-08T02:15:51;10.23;;;6.22;;
19808;SDS011;48538;32.784;-96.802;2024-03-08T02:18:24;10.07;;;6.43;;
19808;SDS011;48538;32.784;-96.802;2024-03-08T02:20:55;10.88;;;6.72;;
19808;SDS011;48538;32.784;-96.802;2024-03-08T02:23:23;12.85;;;6.50;;
19808;SDS011;48538;32.784;-96.802;2024-03-08T02:25:51;13.13;;;6.70;;
19808;SDS011;48538;32.784;-96.802;2024-03-08T02:28:18;14.40;;;6.47;;
19808;SDS011;48538;32.784;-96.802;2024-03-08T02:30:46;13.27;;;7.25;;
19808;SDS011;48538;32.784;-96.802;2024-03-08T02:33:13;9.20;;;6.15;;
19808;SDS011;48538;32.784;-96.802;2024-03-08T02:35:44;10.18;;;5.57;;
19808;SDS011;48538;32.784;-96.802;2024-03-08T02:38:13;10.00;;;6.18;;
19808;SDS011;48538;32.784;-96.802;2024-03-08T02:40:44;10.90;;;6.93;;
19808;SDS011;48538;32.784;-96.802;2024-03-08T02:43:11;12.27;;;7.28;;
19808;SDS011;48538;32.784;-96.802;2024-03-08T02:45:40;10.57;;;6.75;;
19808;SDS011;48538;32.784;-96.802;2024-03-08T02:48:10;15.10;;;7.95;;
19808;SDS011;48538;32.784;-96.802;2024-03-08T02:50:38;12.88;;;6.72;;
19808;SDS011;48538;32.784;-96.802;2024-03-08T02:53:11;11.75;;;6.38;;
19808;SDS011;48538;32.784;-96.802;2024-03-08T02:55:38;11.45;;;6.78;;
19808;SDS011;48538;32.784;-96.802;2024-03-08T02:58:06;13.25;;;7.03;;
19808;SDS011;48538;32.784;-96.802;2024-03-08T03:00:37;10.23;;;6.60;;
19808;SDS011;48538;32.784;-96.802;2024-03-08T03:03:06;15.27;;;7.47;;
19808;SDS011;48538;32.784;-96.802;2024-03-08T03:05:33;9.23;;;6.38;;
19808;SDS011;48538;32.784;-96.802;2024-03-08T03:07:59;10.25;;;6.28;;
19808;SDS011;48538;32.784;-96.802;2024-03-08T03:10:26;10.90;;;6.20;;
19808;SDS011;48538;32.784;-96.802;2024-03-08T03:12:53;11.38;;;6.75;;
19808;SDS011;48538;32.784;-96.802;2024-03-08T03:15:19;11.68;;;6.80;;
19808;SDS011;48538;32.784;-96.802;2024-03-08T03:17:46;17.02;;;7.95;;
19808;SDS011;48538;32.784;-96.802;2024-03-08T03:20:16;66.30;;;13.73;;
19808;SDS011;48538;32.784;-96.802;2024-03-08T03:22:50;39.65;;;9.52;;
19808;SDS011;48538;32.784;-96.802;2024-03-08T03:25:20;11.30;;;6.30;;
19808;SDS011;48538;32.784;-96.802;2024-03-08T03:27:54;12.07;;;6.43;;
19808;SDS011;48538;32.784;-96.802;2024-03-08T03:30:24;11.65;;;4.93;;
19808;SDS011;48538;32.784;-96.802;2024-03-08T03:32:52;6.32;;;4.28;;
19808;SDS011;48538;32.784;-96.802;2024-03-08T03:35:20;7.47;;;4.63;;
19808;SDS011;48538;32.784;-96.802;2024-03-08T03:37:47;11.02;;;6.53;;
19808;SDS011;48538;32.784;-96.802;2024-03-08T03:40:30;9.90;;;6.97;;
19808;SDS011;48538;32.784;-96.802;2024-03-08T03:43:00;11.95;;;6.47;;
19808;SDS011;48538;32.784;-96.802;2024-03-08T03:45:28;7.85;;;5.72;;
19808;SDS011;48538;32.784;-96.802;2024-03-08T03:47:54;9.23;;;6.65;;
19808;SDS011;48538;32.784;-96.802;2024-03-08T03:50:21;10.27;;;6.40;;
19808;SDS011;48538;32.784;-96.802;2024-03-08T03:52:48;12.65;;;7.57;;
19808;SDS011;48538;32.784;-96.802;2024-03-08T03:55:15;11.32;;;6.70;;
19808;SDS011;48538;32.784;-96.802;2024-03-08T03:57:42;10.85;;;7.05;;
19808;SDS011;48538;32.784;-96.802;2024-03-08T04:00:11;8.43;;;6.43;;
19808;SDS011;48538;32.784;-96.802;2024-03-08T04:02:38;9.82;;;6.10;;
19808;SDS011;48538;32.784;-96.802;2024-03-08T04:05:05;7.47;;;5.55;;
19808;SDS011;48538;32.784;-96.802;2024-03-08T04:07:32;9.15;;;6.07;;
19808;SDS011;48538;32.784;-96.802;2024-03-08T04:10:00;8.77;;;5.95;;
19808;SDS011;48538;32.784;-96.802;2024-03-08T04:12:28;7.60;;;5.78;;
19808;SDS011;48538;32.784;-96.802;2024-03-08T04:14:55;13.20;;;6.20;;
19808;SDS011;48538;32.784;-96.802;2024-03-08T04:17:22;10.13;;;6.28;;
19808;SDS011;48538;32.784;-96.802;2024-03-08T04:19:49;8.73;;;6.00;;
19808;SDS011;48538;32.784;-96.802;2024-03-08T04:22:16;10.13;;;6.15;;
19808;SDS011;48538;32.784;-96.802;2024-03-08T04:24:46;9.75;;;5.97;;
19808;SDS011;48538;32.784;-96.802;2024-03-08T04:27:13;7.88;;;5.43;;
19808;SDS011;48538;32.784;-96.802;2024-03-08T04:29:39;8.05;;;5.55;;
19808;SDS011;48538;32.784;-96.802;2024-03-08T04:32:06;11.00;;;6.30;;
19808;SDS011;48538;32.784;-96.802;2024-03-08T04:34:34;11.43;;;6.53;;
19808;SDS011;48538;32.784;-96.802;2024-03-08T04:37:00;9.73;;;5.85;;
19808;SDS011;48538;32.784;-96.802;2024-03-08T04:39:27;8.40;;;6.07;;
19808;SDS011;48538;32.784;-96.802;2024-03-08T04:41:54;12.23;;;6.88;;
19808;SDS011;48538;32.784;-96.802;2024-03-08T04:44:24;11.07;;;6.45;;
19808;SDS011;48538;32.784;-96.802;2024-03-08T04:46:51;8.82;;;5.25;;
19808;SDS011;48538;32.784;-96.802;2024-03-08T04:49:17;9.38;;;5.78;;
19808;SDS011;48538;32.784;-96.802;2024-03-08T04:51:43;12.60;;;6.72;;
19808;SDS011;48538;32.784;-96.802;2024-03-08T04:54:10;13.90;;;6.78;;
19808;SDS011;48538;32.784;-96.802;2024-03-08T04:56:36;11.43;;;6.13;;
19808;SDS011;48538;32.784;-96.802;2024-03-08T04:59:02;9.27;;;6.07;;
19808;SDS011;48538;32.784;-96.802;2024-03-08T05:01:29;10.63;;;5.05;;
19808;SDS011;48538;32.784;-96.802;2024-03-08T05:03:55;12.27;;;6.20;;
19808;SDS011;48538;32.784;-96.802;2024-03-08T05:06:21;7.85;;;6.03;;
19808;SDS011;48538;32.784;-96.802;2024-03-08T05:08:48;8.65;;;5.40;;
19808;SDS011;48538;32.784;-96.802;2024-03-08T05:11:15;11.13;;;6.93;;
19808;SDS011;48538;32.784;-96.802;2024-03-08T05:13:41;10.57;;;6.53;;
19808;SDS011;48538;32.784;-96.802;2024-03-08T05:16:08;11.18;;;6.53;;
19808;SDS011;48538;32.784;-96.802;2024-03-08T05:18:35;9.63;;;6.40;;
19808;SDS011;48538;32.784;-96.802;2024-03-08T05:21:01;10.80;;;7.05;;
19808;SDS011;48538;32.784;-96.802;2024-03-08T05:23:30;12.98;;;6.63;;
19808;SDS011;48538;32.784;-96.802;2024-03-08T05:25:57;11.10;;;7.00;;
19808;SDS011;48538;32.784;-96.802;2024-03-08T05:28:23;10.18;;;6.68;;
19808;SDS011;48538;32.784;-96.802;2024-03-08T05:30:49;10.77;;;7.05;;
19808;SDS011;48538;32.784;-96.802;2024-03-08T05:33:15;9.48;;;6.30;;
19808;SDS011;48538;32.784;-96.802;2024-03-08T05:35:42;7.57;;;5.72;;
19808;SDS011;48538;32.784;-96.802;2024-03-08T05:38:08;11.48;;;6.38;;
19808;SDS011;48538;32.784;-96.802;2024-03-08T05:40:35;10.73;;;6.28;;
19808;SDS011;48538;32.784;-96.802;2024-03-08T05:43:01;10.25;;;6.40;;
19808;SDS011;48538;32.784;-96.802;2024-03-08T05:45:27;8.05;;;6.10;;
19808;SDS011;48538;32.784;-96.802;2024-03-08T05:47:54;8.40;;;6.30;;
19808;SDS011;48538;32.784;-96.802;2024-03-08T05:50:20;7.85;;;5.57;;
19808;SDS011;48538;32.784;-96.802;2024-03-08T05:52:47;7.65;;;6.03;;
19808;SDS011;48538;32.784;-96.802;2024-03-08T05:55:13;9.43;;;6.32;;
19808;SDS011;48538;32.784;-96.802;2024-03-08T05:57:40;9.27;;;6.57;;
19808;SDS011;48538;32.784;-96.802;2024-03-08T06:00:08;12.07;;;6.63;;
19808;SDS011;48538;32.784;-96.802;2024-03-08T06:02:38;9.45;;;5.80;;
19808;SDS011;48538;32.784;-96.802;2024-03-08T06:05:15;8.35;;;6.05;;
19808;SDS011;48538;32.784;-96.802;2024-03-08T06:07:41;9.68;;;6.10;;
19808;SDS011;48538;32.784;-96.802;2024-03-08T06:10:10;8.93;;;5.60;;
19808;SDS011;48538;32.784;-96.802;2024-03-08T06:12:38;7.10;;;4.90;;
19808;SDS011;48538;32.784;-96.802;2024-03-08T06:15:07;8.02;;;5.30;;
19808;SDS011;48538;32.784;-96.802;2024-03-08T06:17:35;7.97;;;5.07;;
19808;SDS011;48538;32.784;-96.802;2024-03-08T06:20:02;9.60;;;6.03;;
19808;SDS011;48538;32.784;-96.802;2024-03-08T06:22:41;9.73;;;5.82;;
19808;SDS011;48538;32.784;-96.802;2024-03-08T06:25:09;11.45;;;6.15;;
19808;SDS011;48538;32.784;-96.802;2024-03-08T06:27:41;8.02;;;5.80;;
19808;SDS011;48538;32.784;-96.802;2024-03-08T06:30:08;10.02;;;5.43;;
19808;SDS011;48538;32.784;-96.802;2024-03-08T06:32:36;9.80;;;5.97;;
19808;SDS011;48538;32.784;-96.802;2024-03-08T06:35:03;8.15;;;5.55;;
19808;SDS011;48538;32.784;-96.802;2024-03-08T06:37:33;8.82;;;6.13;;
19808;SDS011;48538;32.784;-96.802;2024-03-08T06:40:00;8.63;;;5.40;;
19808;SDS011;48538;32.784;-96.802;2024-03-08T06:42:28;7.05;;;5.10;;
19808;SDS011;48538;32.784;-96.802;2024-03-08T06:44:58;9.10;;;5.05;;
19808;SDS011;48538;32.784;-96.802;2024-03-08T06:47:30;8.95;;;5.18;;
19808;SDS011;48538;32.784;-96.802;2024-03-08T06:49:57;7.95;;;5.70;;
19808;SDS011;48538;32.784;-96.802;2024-03-08T06:52:23;7.88;;;5.20;;
19808;SDS011;48538;32.784;-96.802;2024-03-08T06:54:50;10.05;;;5.82;;
19808;SDS011;48538;32.784;-96.802;2024-03-08T06:57:17;7.45;;;4.85;;
19808;SDS011;48538;32.784;-96.802;2024-03-08T06:59:47;7.80;;;5.25;;
19808;SDS011;48538;32.784;-96.802;2024-03-08T07:02:14;9.82;;;5.90;;
19808;SDS011;48538;32.784;-96.802;2024-03-08T07:04:40;7.28;;;5.15;;
19808;SDS011;48538;32.784;-96.802;2024-03-08T07:07:06;10.02;;;5.32;;
19808;SDS011;48538;32.784;-96.802;2024-03-08T07:09:36;9.93;;;5.63;;
19808;SDS011;48538;32.784;-96.802;2024-03-08T07:12:02;7.55;;;4.78;;
19808;SDS011;48538;32.784;-96.802;2024-03-08T07:14:29;8.82;;;5.60;;
19808;SDS011;48538;32.784;-96.802;2024-03-08T07:16:59;6.90;;;5.53;;
19808;SDS011;48538;32.784;-96.802;2024-03-08T07:19:25;8.27;;;5.85;;
19808;SDS011;48538;32.784;-96.802;2024-03-08T07:21:51;11.30;;;5.90;;
19808;SDS011;48538;32.784;-96.802;2024-03-08T07:24:17;9.48;;;5.32;;
19808;SDS011;48538;32.784;-96.802;2024-03-08T07:27:03;9.80;;;5.95;;
19808;SDS011;48538;32.784;-96.802;2024-03-08T07:29:30;11.23;;;5.63;;
19808;SDS011;48538;32.784;-96.802;2024-03-08T07:31:57;8.90;;;6.10;;
19808;SDS011;48538;32.784;-96.802;2024-03-08T07:34:42;10.98;;;6.55;;
19808;SDS011;48538;32.784;-96.802;2024-03-08T07:37:09;10.88;;;6.15;;
19808;SDS011;48538;32.784;-96.802;2024-03-08T07:39:37;11.43;;;5.97;;
19808;SDS011;48538;32.784;-96.802;2024-03-08T07:42:04;8.07;;;5.47;;
19808;SDS011;48538;32.784;-96.802;2024-03-08T07:44:30;8.32;;;5.72;;
19808;SDS011;48538;32.784;-96.802;2024-03-08T07:46:58;9.77;;;6.32;;
19808;SDS011;48538;32.784;-96.802;2024-03-08T07:49:24;8.77;;;6.50;;
19808;SDS011;48538;32.784;-96.802;2024-03-08T07:51:50;9.90;;;5.72;;
19808;SDS011;48538;32.784;-96.802;2024-03-08T07:54:17;7.95;;;5.18;;
19808;SDS011;48538;32.784;-96.802;2024-03-08T07:56:43;7.65;;;5.55;;
19808;SDS011;48538;32.784;-96.802;2024-03-08T07:59:10;7.25;;;5.57;;
19808;SDS011;48538;32.784;-96.802;2024-03-08T08:01:37;8.15;;;5.63;;
19808;SDS011;48538;32.784;-96.802;2024-03-08T08:04:03;9.95;;;5.15;;
19808;SDS011;48538;32.784;-96.802;2024-03-08T08:06:30;11.02;;;6.20;;
19808;SDS011;48538;32.784;-96.802;2024-03-08T08:09:00;9.98;;;5.65;;
19808;SDS011;48538;32.784;-96.802;2024-03-08T08:11:26;9.82;;;6.10;;
19808;SDS011;48538;32.784;-96.802;2024-03-08T08:13:54;9.02;;;6.13;;
19808;SDS011;48538;32.784;-96.802;2024-03-08T08:16:22;9.10;;;6.15;;
19808;SDS011;48538;32.784;-96.802;2024-03-08T08:18:51;8.50;;;5.82;;
19808;SDS011;48538;32.784;-96.802;2024-03-08T08:21:18;8.57;;;6.03;;
19808;SDS011;48538;32.784;-96.802;2024-03-08T08:23:44;8.15;;;5.65;;
19808;SDS011;48538;32.784;-96.802;2024-03-08T08:26:11;10.02;;;6.55;;
19808;SDS011;48538;32.784;-96.802;2024-03-08T08:28:37;11.02;;;7.05;;
19808;SDS011;48538;32.784;-96.802;2024-03-08T08:31:06;12.43;;;6.35;;
19808;SDS011;48538;32.784;-96.802;2024-03-08T08:33:33;9.35;;;6.32;;
19808;SDS011;48538;32.784;-96.802;2024-03-08T08:36:00;8.90;;;6.10;;
19808;SDS011;48538;32.784;-96.802;2024-03-08T08:38:28;9.80;;;6.28;;
19808;SDS011;48538;32.784;-96.802;2024-03-08T08:40:55;12.63;;;7.60;;
19808;SDS011;48538;32.784;-96.802;2024-03-08T08:43:21;9.60;;;6.63;;
19808;SDS011;48538;32.784;-96.802;2024-03-08T08:45:49;10.68;;;6.70;;
19808;SDS011;48538;32.784;-96.802;2024-03-08T08:48:19;11.10;;;6.32;;
19808;SDS011;48538;32.784;-96.802;2024-03-08T08:50:46;9.55;;;6.63;;
19808;SDS011;48538;32.784;-96.802;2024-03-08T08:53:12;10.07;;;6.97;;
19808;SDS011;48538;32.784;-96.802;2024-03-08T08:55:40;11.63;;;6.63;;
19808;SDS011;48538;32.784;-96.802;2024-03-08T08:58:06;10.75;;;6.53;;
19808;SDS011;48538;32.784;-96.802;2024-03-08T09:00:33;11.18;;;7.72;;
19808;SDS011;48538;32.784;-96.802;2024-03-08T09:03:00;10.00;;;7.05;;
19808;SDS011;48538;32.784;-96.802;2024-03-08T09:05:27;11.25;;;7.30;;
19808;SDS011;48538;32.784;-96.802;2024-03-08T09:07:54;11.63;;;7.78;;
19808;SDS011;48538;32.784;-96.802;2024-03-08T09:10:20;16.20;;;7.78;;
19808;SDS011;48538;32.784;-96.802;2024-03-08T09:12:47;12.13;;;7.07;;
19808;SDS011;48538;32.784;-96.802;2024-03-08T09:15:13;8.52;;;6.85;;
19808;SDS011;48538;32.784;-96.802;2024-03-08T09:17:40;11.70;;;7.45;;
19808;SDS011;48538;32.784;-96.802;2024-03-08T09:20:08;9.55;;;6.95;;
19808;SDS011;48538;32.784;-96.802;2024-03-08T09:22:35;11.85;;;6.40;;
19808;SDS011;48538;32.784;-96.802;2024-03-08T09:25:02;7.95;;;6.38;;
19808;SDS011;48538;32.784;-96.802;2024-03-08T09:27:30;10.40;;;6.28;;
19808;SDS011;48538;32.784;-96.802;2024-03-08T09:29:57;10.93;;;6.15;;
19808;SDS011;48538;32.784;-96.802;2024-03-08T09:32:23;9.68;;;5.53;;
19808;SDS011;48538;32.784;-96.802;2024-03-08T09:34:49;11.38;;;6.93;;
19808;SDS011;48538;32.784;-96.802;2024-03-08T09:37:16;9.85;;;5.97;;
19808;SDS011;48538;32.784;-96.802;2024-03-08T09:39:42;10.13;;;6.43;;
19808;SDS011;48538;32.784;-96.802;2024-03-08T09:42:09;8.57;;;6.20;;
19808;SDS011;48538;32.784;-96.802;2024-03-08T09:44:43;8.63;;;5.93;;
19808;SDS011;48538;32.784;-96.802;2024-03-08T09:47:12;10.45;;;6.00;;
19808;SDS011;48538;32.784;-96.802;2024-03-08T09:49:40;9.88;;;6.57;;
19808;SDS011;48538;32.784;-96.802;2024-03-08T09:52:09;9.07;;;5.90;;
19808;SDS011;48538;32.784;-96.802;2024-03-08T09:54:37;8.20;;;6.20;;
19808;SDS011;48538;32.784;-96.802;2024-03-08T09:57:04;11.25;;;5.88;;
19808;SDS011;48538;32.784;-96.802;2024-03-08T09:59:34;8.60;;;6.10;;
19808;SDS011;48538;32.784;-96.802;2024-03-08T10:02:03;7.65;;;6.00;;
19808;SDS011;48538;32.784;-96.802;2024-03-08T10:04:30;9.88;;;5.88;;
19808;SDS011;48538;32.784;-96.802;2024-03-08T10:07:00;7.60;;;6.00;;
19808;SDS011;48538;32.784;-96.802;2024-03-08T10:09:27;11.13;;;6.15;;
19808;SDS011;48538;32.784;-96.802;2024-03-08T10:11:56;10.23;;;6.47;;
19808;SDS011;48538;32.784;-96.802;2024-03-08T10:14:26;8.68;;;6.18;;
19808;SDS011;48538;32.784;-96.802;2024-03-08T10:16:52;8.80;;;6.50;;
19808;SDS011;48538;32.784;-96.802;2024-03-08T10:19:21;11.18;;;7.10;;
19808;SDS011;48538;32.784;-96.802;2024-03-08T10:21:50;9.75;;;6.43;;
19808;SDS011;48538;32.784;-96.802;2024-03-08T10:24:19;9.85;;;6.07;;
19808;SDS011;48538;32.784;-96.802;2024-03-08T10:26:45;11.50;;;7.20;;
19808;SDS011;48538;32.784;-96.802;2024-03-08T10:29:13;10.02;;;6.22;;
19808;SDS011;48538;32.784;-96.802;2024-03-08T10:31:43;11.15;;;7.32;;
19808;SDS011;48538;32.784;-96.802;2024-03-08T10:34:10;13.00;;;6.50;;
19808;SDS011;48538;32.784;-96.802;2024-03-08T10:36:36;10.27;;;6.82;;
19808;SDS011;48538;32.784;-96.802;2024-03-08T10:39:04;10.50;;;7.32;;
19808;SDS011;48538;32.784;-96.802;2024-03-08T10:41:38;13.82;;;7.28;;
19808;SDS011;48538;32.784;-96.802;2024-03-08T10:44:23;16.17;;;7.00;;
19808;SDS011;48538;32.784;-96.802;2024-03-08T10:49:59;12.00;;;7.32;;
19808;SDS011;48538;32.784;-96.802;2024-03-08T10:52:31;16.08;;;7.53;;
19808;SDS011;48538;32.784;-96.802;2024-03-08T10:55:00;11.18;;;7.40;;
19808;SDS011;48538;32.784;-96.802;2024-03-08T10:57:27;12.13;;;6.80;;
19808;SDS011;48538;32.784;-96.802;2024-03-08T10:59:54;9.43;;;6.28;;
19808;SDS011;48538;32.784;-96.802;2024-03-08T11:02:23;9.10;;;6.90;;
19808;SDS011;48538;32.784;-96.802;2024-03-08T11:04:52;9.20;;;6.57;;
19808;SDS011;48538;32.784;-96.802;2024-03-08T11:07:21;7.38;;;4.70;;
19808;SDS011;48538;32.784;-96.802;2024-03-08T11:09:48;5.57;;;4.10;;
19808;SDS011;48538;32.784;-96.802;2024-03-08T11:12:21;4.82;;;3.70;;
19808;SDS011;48538;32.784;-96.802;2024-03-08T11:14:59;4.82;;;3.40;;
19808;SDS011;48538;32.784;-96.802;2024-03-08T11:20:04;4.38;;;2.72;;
19808;SDS011;48538;32.784;-96.802;2024-03-08T11:22:51;2.17;;;1.98;;
19808;SDS011;48538;32.784;-96.802;2024-03-08T11:25:35;2.33;;;1.92;;
19808;SDS011;48538;32.784;-96.802;2024-03-08T11:28:13;2.95;;;1.80;;
19808;SDS011;48538;32.784;-96.802;2024-03-08T11:33:29;3.05;;;1.85;;
19808;SDS011;48538;32.784;-96.802;2024-03-08T11:38:42;2.17;;;1.90;;
19808;SDS011;48538;32.784;-96.802;2024-03-08T11:41:16;2.15;;;1.60;;
19808;SDS011;48538;32.784;-96.802;2024-03-08T11:43:48;2.42;;;1.55;;
19808;SDS011;48538;32.784;-96.802;2024-03-08T11:46:15;2.13;;;1.50;;
19808;SDS011;48538;32.784;-96.802;2024-03-08T11:48:47;2.67;;;1.80;;
19808;SDS011;48538;32.784;-96.802;2024-03-08T11:51:14;2.25;;;2.05;;
19808;SDS011;48538;32.784;-96.802;2024-03-08T11:53:43;2.80;;;1.70;;
19808;SDS011;48538;32.784;-96.802;2024-03-08T11:56:11;3.55;;;1.50;;
19808;SDS011;48538;32.784;-96.802;2024-03-08T11:58:38;1.60;;;1.50;;
19808;SDS011;48538;32.784;-96.802;2024-03-08T12:01:06;4.05;;;1.70;;
19808;SDS011;48538;32.784;-96.802;2024-03-08T12:03:39;1.60;;;1.40;;
19808;SDS011;48538;32.784;-96.802;2024-03-08T12:06:07;3.20;;;1.60;;
19808;SDS011;48538;32.784;-96.802;2024-03-08T12:08:37;1.80;;;1.70;;
19808;SDS011;48538;32.784;-96.802;2024-03-08T12:11:03;1.77;;;1.67;;
19808;SDS011;48538;32.784;-96.802;2024-03-08T12:13:31;2.17;;;1.50;;
19808;SDS011;48538;32.784;-96.802;2024-03-08T12:15:59;1.80;;;1.40;;
19808;SDS011;48538;32.784;-96.802;2024-03-08T12:18:33;1.83;;;1.55;;
19808;SDS011;48538;32.784;-96.802;2024-03-08T12:21:04;1.52;;;1.40;;
19808;SDS011;48538;32.784;-96.802;2024-03-08T12:23:35;1.50;;;1.40;;
19808;SDS011;48538;32.784;-96.802;2024-03-08T12:26:12;1.60;;;1.42;;
19808;SDS011;48538;32.784;-96.802;2024-03-08T12:28:43;3.45;;;1.60;;
19808;SDS011;48538;32.784;-96.802;2024-03-08T12:31:13;1.70;;;1.60;;
19808;SDS011;48538;32.784;-96.802;2024-03-08T12:33:53;1.88;;;1.42;;
19808;SDS011;48538;32.784;-96.802;2024-03-08T12:36:21;4.80;;;1.70;;
19808;SDS011;48538;32.784;-96.802;2024-03-08T12:38:48;3.13;;;1.75;;
19808;SDS011;48538;32.784;-96.802;2024-03-08T12:41:15;1.70;;;1.60;;
19808;SDS011;48538;32.784;-96.802;2024-03-08T12:43:45;2.47;;;1.77;;
19808;SDS011;48538;32.784;-96.802;2024-03-08T12:46:17;2.03;;;1.60;;
19808;SDS011;48538;32.784;-96.802;2024-03-08T12:48:51;3.22;;;1.63;;
19808;SDS011;48538;32.784;-96.802;2024-03-08T12:51:19;2.30;;;1.80;;
19808;SDS011;48538;32.784;-96.802;2024-03-08T12:53:46;3.30;;;1.85;;
19808;SDS011;48538;32.784;-96.802;2024-03-08T12:56:13;2.45;;;1.85;;
19808;SDS011;48538;32.784;-96.802;2024-03-08T12:59:10;2.28;;;1.83;;
19808;SDS011;48538;32.784;-96.802;2024-03-08T13:01:37;3.03;;;1.85;;
19808;SDS011;48538;32.784;-96.802;2024-03-08T13:04:03;3.47;;;1.67;;
19808;SDS011;48538;32.784;-96.802;2024-03-08T13:06:32;2.90;;;1.90;;
19808;SDS011;48538;32.784;-96.802;2024-03-08T13:08:58;3.25;;;1.60;;
19808;SDS011;48538;32.784;-96.802;2024-03-08T13:11:30;2.08;;;1.40;;
19808;SDS011;48538;32.784;-96.802;2024-03-08T13:14:02;1.33;;;1.23;;
19808;SDS011;48538;32.784;-96.802;2024-03-08T13:16:30;2.70;;;1.52;;
19808;SDS011;48538;32.784;-96.802;2024-03-08T13:18:57;2.17;;;1.40;;
19808;SDS011;48538;32.784;-96.802;2024-03-08T13:21:23;2.20;;;1.58;;
19808;SDS011;48538;32.784;-96.802;2024-03-08T13:23:49;1.83;;;1.63;;
19808;SDS011;48538;32.784;-96.802;2024-03-08T13:26:18;2.70;;;1.92;;
19808;SDS011;48538;32.784;-96.802;2024-03-08T13:28:48;1.75;;;1.52;;
19808;SDS011;48538;32.784;-96.802;2024-03-08T13:31:21;3.60;;;1.63;;
19808;SDS011;48538;32.784;-96.802;2024-03-08T13:33:48;1.92;;;1.80;;
19808;SDS011;48538;32.784;-96.802;2024-03-08T13:36:16;2.83;;;1.60;;
19808;SDS011;48538;32.784;-96.802;2024-03-08T13:38:46;2.35;;;1.65;;
19808;SDS011;48538;32.784;-96.802;2024-03-08T13:41:14;2.50;;;1.50;;
19808;SDS011;48538;32.784;-96.802;2024-03-08T13:43:42;2.75;;;1.85;;
19808;SDS011;48538;32.784;-96.802;2024-03-08T13:46:10;2.70;;;1.80;;
19808;SDS011;48538;32.784;-96.802;2024-03-08T13:48:37;1.95;;;1.40;;
19808;SDS011;48538;32.784;-96.802;2024-03-08T13:51:04;1.65;;;1.45;;
19808;SDS011;48538;32.784;-96.802;2024-03-08T13:53:39;1.73;;;1.52;;
19808;SDS011;48538;32.784;-96.802;2024-03-08T13:56:05;2.25;;;1.60;;
19808;SDS011;48538;32.784;-96.802;2024-03-08T13:58:33;2.03;;;1.52;;
19808;SDS011;48538;32.784;-96.802;2024-03-08T14:01:00;3.22;;;1.60;;
19808;SDS011;48538;32.784;-96.802;2024-03-08T14:03:28;2.15;;;1.40;;
19808;SDS011;48538;32.784;-96.802;2024-03-08T14:05:54;2.33;;;1.50;;
19808;SDS011;48538;32.784;-96.802;2024-03-08T14:08:22;2.50;;;1.80;;
19808;SDS011;48538;32.784;-96.802;2024-03-08T14:10:50;1.85;;;1.30;;
19808;SDS011;48538;32.784;-96.802;2024-03-08T14:13:18;2.10;;;1.30;;
19808;SDS011;48538;32.784;-96.802;2024-03-08T14:15:46;2.95;;;1.73;;
19808;SDS011;48538;32.784;-96.802;2024-03-08T14:18:13;2.08;;;1.75;;
19808;SDS011;48538;32.784;-96.802;2024-03-08T14:20:40;2.22;;;1.52;;
19808;SDS011;48538;32.784;-96.802;2024-03-08T14:23:07;3.50;;;2.15;;
19808;SDS011;48538;32.784;-96.802;2024-03-08T14:25:33;2.63;;;1.58;;
19808;SDS011;48538;32.784;-96.802;2024-03-08T14:28:00;2.00;;;1.70;;
19808;SDS011;48538;32.784;-96.802;2024-03-08T14:30:32;2.65;;;1.70;;
19808;SDS011;48538;32.784;-96.802;2024-03-08T14:33:06;2.72;;;2.05;;